EST,Max TemperatureF,Mean TemperatureF,Min TemperatureF,Max Dew PointF,MeanDew PointF,Min DewpointF,Max Humidity, Mean Humidity, Min Humidity, Max Sea Level PressureIn, Mean Sea Level PressureIn, Min Sea Level PressureIn, Max VisibilityMiles, Mean VisibilityMiles, Min VisibilityMiles, Max Wind SpeedMPH, Mean Wind SpeedMPH, Max Gust SpeedMPH,PrecipitationIn, CloudCover, Events, WindDirDegrees
2012-2-1,,,,,,,,,,,,,,,,,,,,,,
2012-2-2,37,,37,27,27,27,65,65,65,30.05,30.05,30.05,10,10,10,0,0,,0.00,3,,-1
2012-2-3,41,34,32,21,19,16,64,51,41,30.41,30.38,30.35,10,10,10,14,7,,0.00,0,,334
2012-2-4,,,,,,,,,,,,,,,,,,,,,,
2012-2-5,35,32,30,18,15,10,60,47,35,30.17,30.14,30.11,10,10,10,12,6,,0.00,1,,15
2012-2-6,46,45,44,34,32,28,62,57,53,30.04,29.99,29.97,10,10,10,17,16,23,0.00,0,,250
2012-2-7,48,45,42,32,30,28,66,55,50,30.08,30.04,30.03,10,10,10,12,9,17,0.00,0,,314
2012-2-8,35,34,33,25,24,23,65,65,65,30.33,30.21,30.02,10,10,10,5,3,,0.00,8,,79
2012-2-9,41,37,33,27,24,21,70,58,45,30.09,30.06,30.04,10,10,10,16,14,,0.00,0,,312
2012-2-10,,,,,,,,,,,,,,,,,,,,,,
2012-2-11,33,,33,,,,,,,29.74,29.74,29.74,1,1,1,14,14,,0.00,,Snow,10
2012-2-12,,,,,,,,,,,,,,,,,,,,,,
2012-2-13,42,39,37,19,18,18,48,41,36,29.93,29.92,29.91,10,10,10,20,16,25,0.00,0,,282
2012-2-14,42,40,37,32,27,21,70,58,45,30.14,30.10,30.06,10,10,10,12,3,,0.00,6,,206
2012-2-15,48,45,42,37,37,34,76,69,58,30.17,30.16,30.15,10,10,10,4,1,,0.00,5,,313
2012-2-16,,,,,,,,,,,,,,,,,,,,,,
2012-2-17,50,46,42,37,34,25,66,58,43,29.99,29.94,29.89,10,9,6,13,8,,0.00,5,Rain,310
2012-2-18,,,,,,,,,,,,,,,,,,,,,,
2012-2-19,39,38,37,28,28,28,70,67,65,30.07,30.06,30.04,10,10,10,12,9,,0.00,0,,358
2012-2-20,42,38,33,18,18,18,52,42,36,30.14,30.12,30.10,10,10,10,14,12,,0.00,2,,357
2012-2-21,42,40,37,34,28,25,70,62,56,30.33,30.23,30.07,10,10,10,18,9,,0.00,4,,210
2012-2-22,53,50,46,39,33,14,66,53,27,29.77,29.71,29.64,10,10,10,12,10,,0.00,0,,234
2012-2-23,53,52,51,34,32,30,50,46,44,29.64,29.59,29.53,10,10,10,20,16,,0.00,0,,307
2012-2-24,44,40,37,,,,,,,29.71,29.58,29.52,9,8,4,10,9,,0.00,8,,94
2012-2-25,,,,,,,,,,,,,,,,,,,,,,
2012-2-26,,,,,,,,,,,,,,,,,,,,,,
2012-2-27,48,48,48,37,37,37,66,66,66,30.33,30.28,30.20,10,10,10,17,16,26,0.00,2,,207
2012-2-28,48,43,42,27,24,21,49,44,34,30.35,30.33,30.31,10,10,10,14,12,,0.00,0,,293
2012-2-29,44,44,44,36,34,32,71,66,61,30.27,30.25,30.23,10,10,10,4,3,,0.00,7,,115